Time;durP1;ratioP1;P1;durP2;ratioP2;P2;SDS_P1;SDS_P2;PMS_P1;PMS_P2;Temp;Humidity;BMP_temperature;BMP_pressure;BME280_temperature;BME280_humidity;BME280_pressure;Samples;Min_cycle;Max_cycle;Signal;HPM_P1;HPM_P2
2022/06/25 00:01:54;;;;;;;5.70;1.50;;;22.10;63.70;;;;;;5044199;28;20032;-61
2022/06/25 00:07:04;;;;;;;4.28;1.65;;;22.10;63.60;;;;;;5046909;28;20040;-61
2022/06/25 00:09:30;;;;;;;4.30;1.50;;;22.10;63.60;;;;;;5048586;28;20051;-61
2022/06/25 00:14:40;;;;;;;6.30;1.80;;;22.10;63.60;;;;;;5045846;28;20055;-61
2022/06/25 00:17:05;;;;;;;5.13;1.73;;;22.10;63.60;;;;;;5046412;28;20033;-61
2022/06/25 00:19:31;;;;;;;4.45;1.40;;;22.10;63.80;;;;;;5045572;28;20758;-61
2022/06/25 00:21:57;;;;;;;5.07;1.60;;;22.10;63.70;;;;;;5046442;28;20618;-61
2022/06/25 00:24:22;;;;;;;3.17;1.35;;;22.10;63.60;;;;;;5048271;28;20033;-61
2022/06/25 00:26:48;;;;;;;3.47;1.30;;;22.10;63.70;;;;;;5048675;28;20118;-61
2022/06/25 00:29:14;;;;;;;2.85;1.25;;;22.10;63.60;;;;;;5047270;28;20434;-61
2022/06/25 00:31:40;;;;;;;4.13;1.48;;;22.00;63.60;;;;;;5048188;28;20028;-61
2022/06/25 00:34:05;;;;;;;5.55;1.50;;;22.00;63.60;;;;;;5042417;28;20040;-61
2022/06/25 00:36:31;;;;;;;4.72;1.40;;;22.00;63.60;;;;;;5046894;28;20047;-61
2022/06/25 00:38:57;;;;;;;5.07;1.52;;;22.00;63.50;;;;;;5047448;28;20025;-61
2022/06/25 00:41:23;;;;;;;4.60;1.30;;;22.00;63.60;;;;;;5046217;28;20398;-61
2022/06/25 00:43:48;;;;;;;3.90;1.20;;;22.00;63.60;;;;;;5045947;28;20045;-61
2022/06/25 00:46:14;;;;;;;4.68;1.23;;;22.00;63.60;;;;;;5047796;28;20104;-61
2022/06/25 00:48:40;;;;;;;6.03;1.60;;;22.00;63.60;;;;;;5047084;28;20025;-61
2022/06/25 00:51:15;;;;;;;6.35;1.70;;;22.00;63.60;;;;;;5046903;28;20110;-61
2022/06/25 00:53:44;;;;;;;5.45;1.60;;;22.00;63.60;;;;;;5043882;28;20064;-61
2022/06/25 00:56:11;;;;;;;4.80;1.40;;;22.00;63.70;;;;;;5047314;28;20021;-61
2022/06/25 00:58:41;;;;;;;5.18;1.40;;;21.90;63.50;;;;;;5045927;28;20515;-61
2022/06/25 01:01:10;;;;;;;3.53;1.20;;;21.90;63.50;;;;;;5045245;28;20792;-61
2022/06/25 01:03:36;;;;;;;4.93;1.38;;;21.90;63.60;;;;;;5048209;28;20021;-61
2022/06/25 01:06:02;;;;;;;5.28;1.30;;;21.90;63.50;;;;;;5047395;28;20017;-61
2022/06/25 01:08:27;;;;;;;5.07;1.40;;;21.90;63.50;;;;;;5044669;28;20036;-61
2022/06/25 01:10:53;;;;;;;5.30;1.55;;;21.90;63.50;;;;;;5062187;28;20033;-61
2022/06/25 01:13:22;;;;;;;3.35;1.20;;;21.90;63.60;;;;;;5045108;28;20051;-61
2022/06/25 01:15:48;;;;;;;4.70;1.50;;;21.90;63.50;;;;;;5044927;28;20039;-61
2022/06/25 01:18:14;;;;;;;4.47;1.30;;;21.90;63.60;;;;;;5046893;28;20029;-61
2022/06/25 01:20:42;;;;;;;5.45;1.48;;;21.90;63.50;;;;;;5045804;28;20102;-61
2022/06/25 01:23:08;;;;;;;5.47;1.33;;;21.90;63.50;;;;;;5045443;28;20029;-61
2022/06/25 01:25:35;;;;;;;3.97;1.40;;;21.80;63.50;;;;;;5045636;28;20089;-61
2022/06/25 01:28:01;;;;;;;3.58;1.30;;;21.80;63.50;;;;;;5047086;28;20539;-60
2022/06/25 01:30:26;;;;;;;3.97;1.30;;;21.80;63.50;;;;;;5046126;28;20110;-61
2022/06/25 01:32:52;;;;;;;4.88;1.48;;;21.80;63.50;;;;;;5046627;28;20059;-61
2022/06/25 01:35:18;;;;;;;3.50;1.20;;;21.80;63.50;;;;;;5045536;28;20081;-61
2022/06/25 01:37:44;;;;;;;3.95;1.23;;;21.80;63.50;;;;;;5042482;28;20072;-61
2022/06/25 01:40:10;;;;;;;5.15;1.35;;;21.80;63.50;;;;;;5044664;28;20056;-61
2022/06/25 01:45:20;;;;;;;6.18;1.40;;;21.80;63.40;;;;;;5030427;28;20332;-61
2022/06/25 01:47:45;;;;;;;4.82;1.30;;;21.80;63.50;;;;;;5024558;28;20108;-61
2022/06/25 01:50:11;;;;;;;4.00;1.52;;;21.80;63.50;;;;;;5022593;28;20030;-61
2022/06/25 01:52:37;;;;;;;3.25;1.20;;;21.70;63.40;;;;;;5024370;28;20112;-61
2022/06/25 01:55:03;;;;;;;4.10;1.27;;;21.70;63.40;;;;;;5024936;28;20470;-61
2022/06/25 01:57:29;;;;;;;4.90;1.23;;;21.70;63.50;;;;;;5025663;28;20025;-61
2022/06/25 01:59:56;;;;;;;2.75;1.40;;;21.70;63.40;;;;;;5025217;28;20382;-61
2022/06/25 02:02:25;;;;;;;5.07;1.35;;;21.70;63.40;;;;;;5009749;28;20072;-61
2022/06/25 02:04:52;;;;;;;3.75;1.30;;;21.70;63.40;;;;;;5025256;28;20025;-61
2022/06/25 02:07:17;;;;;;;4.10;1.20;;;21.70;63.40;;;;;;5023813;28;20029;-61
2022/06/25 02:09:43;;;;;;;4.18;1.20;;;21.70;63.50;;;;;;5025165;28;20510;-61
2022/06/25 02:12:09;;;;;;;4.60;1.40;;;21.70;63.40;;;;;;5013188;28;20490;-61
2022/06/25 02:14:34;;;;;;;3.38;1.27;;;21.70;63.40;;;;;;5025044;28;20033;-61
2022/06/25 02:17:02;;;;;;;5.30;1.40;;;21.70;63.40;;;;;;5024544;28;20025;-61
2022/06/25 02:19:28;;;;;;;4.88;1.40;;;21.70;63.70;;;;;;5007113;28;20041;-61
2022/06/25 02:21:53;;;;;;;3.67;1.50;;;21.70;63.40;;;;;;5025149;28;20109;-61
2022/06/25 02:24:19;;;;;;;3.30;1.33;;;21.60;63.40;;;;;;5026053;28;20037;-61
2022/06/25 02:26:45;;;;;;;3.88;1.30;;;21.70;63.50;;;;;;5024051;28;20033;-61
2022/06/25 02:29:10;;;;;;;2.75;1.10;;;21.60;63.40;;;;;;5023348;28;20036;-61
2022/06/25 02:31:36;;;;;;;2.75;1.30;;;21.60;63.40;;;;;;5024201;28;20029;-61
2022/06/25 02:34:02;;;;;;;4.20;1.30;;;21.60;63.40;;;;;;5025560;28;20083;-61
2022/06/25 02:36:27;;;;;;;7.07;1.40;;;21.60;63.30;;;;;;5026307;28;20029;-61
2022/06/25 02:38:53;;;;;;;3.63;1.15;;;21.60;63.30;;;;;;5024739;28;20444;-61
2022/06/25 02:41:19;;;;;;;3.20;1.10;;;21.60;63.30;;;;;;5023135;28;20033;-61
2022/06/25 02:43:44;;;;;;;4.25;1.38;;;21.60;63.30;;;;;;5025500;28;20040;-61
2022/06/25 02:46:10;;;;;;;3.17;1.20;;;21.60;63.30;;;;;;5042978;28;20163;-61
2022/06/25 02:48:35;;;;;;;4.75;1.50;;;21.60;63.30;;;;;;5045929;28;20059;-61
2022/06/25 02:51:01;;;;;;;4.90;1.30;;;21.60;63.30;;;;;;5042749;28;20037;-61
2022/06/25 02:53:27;;;;;;;3.70;1.25;;;21.60;63.30;;;;;;5043520;28;20073;-61
2022/06/25 02:58:55;;;;;;;2.88;1.33;;;21.60;63.40;;;;;;5042005;28;20557;-61
2022/06/25 03:01:25;;;;;;;7.43;1.42;;;21.50;63.30;;;;;;5043478;28;20552;-61
2022/06/25 03:03:51;;;;;;;5.13;1.33;;;21.50;63.30;;;;;;5038472;28;20113;-61
2022/06/25 03:06:17;;;;;;;3.92;1.30;;;21.50;63.30;;;;;;5044254;28;20100;-61
2022/06/25 03:08:42;;;;;;;5.40;1.30;;;21.50;63.30;;;;;;5043271;28;20079;-61
2022/06/25 03:11:08;;;;;;;3.13;1.10;;;21.50;63.30;;;;;;5042042;28;20033;-61
2022/06/25 03:13:36;;;;;;;3.72;1.10;;;21.50;63.30;;;;;;5043776;28;20033;-61
2022/06/25 03:16:02;;;;;;;5.03;1.23;;;21.50;63.30;;;;;;5042634;28;20118;-61
2022/06/25 03:18:27;;;;;;;3.88;1.33;;;21.50;63.30;;;;;;5044431;28;20108;-61
2022/06/25 03:20:53;;;;;;;4.68;1.30;;;21.50;63.40;;;;;;5043570;28;20111;-61
2022/06/25 03:23:22;;;;;;;3.83;1.10;;;21.50;63.30;;;;;;5042918;28;20055;-61
2022/06/25 03:25:48;;;;;;;4.63;1.30;;;21.50;63.40;;;;;;5042915;28;20127;-61
2022/06/25 03:28:14;;;;;;;3.90;1.15;;;21.50;63.30;;;;;;5042587;28;20092;-61
2022/06/25 03:30:39;;;;;;;3.28;1.20;;;21.50;63.30;;;;;;5043634;28;20036;-61
2022/06/25 03:33:05;;;;;;;4.20;1.25;;;21.50;63.30;;;;;;5041425;28;20494;-61
2022/06/25 03:35:31;;;;;;;2.58;1.08;;;21.40;63.20;;;;;;5043541;28;20119;-61
2022/06/25 03:37:56;;;;;;;3.80;1.23;;;21.40;63.20;;;;;;5041379;28;20025;-61
2022/06/25 03:40:22;;;;;;;3.58;1.20;;;21.40;63.30;;;;;;5046407;28;20025;-61
2022/06/25 03:42:48;;;;;;;4.00;1.30;;;21.40;63.30;;;;;;5045862;28;20033;-61
2022/06/25 03:45:14;;;;;;;5.20;1.40;;;21.40;63.20;;;;;;5047947;28;20049;-61
2022/06/25 03:47:39;;;;;;;3.67;1.25;;;21.40;63.20;;;;;;5047191;28;20029;-61
2022/06/25 03:50:06;;;;;;;4.47;1.40;;;21.40;64.20;;;;;;5046534;28;20024;-61
2022/06/25 03:52:31;;;;;;;3.33;1.27;;;21.40;63.20;;;;;;5045701;28;20055;-61
2022/06/25 03:54:57;;;;;;;3.38;1.33;;;21.40;63.20;;;;;;5047338;28;20497;-61
2022/06/25 03:57:23;;;;;;;2.10;1.17;;;21.40;63.20;;;;;;5048060;28;20032;-61
2022/06/25 03:59:48;;;;;;;4.00;1.20;;;21.40;63.20;;;;;;5046060;28;20033;-61
2022/06/25 04:02:14;;;;;;;4.95;1.40;;;21.40;63.20;;;;;;5047007;28;20078;-61
2022/06/25 04:04:39;;;;;;;4.70;1.20;;;21.40;63.20;;;;;;5045742;28;20025;-61
2022/06/25 04:07:05;;;;;;;2.92;1.10;;;21.30;63.20;;;;;;5045455;28;20094;-61
2022/06/25 04:09:31;;;;;;;3.65;1.35;;;21.40;63.10;;;;;;5047865;28;20028;-61
2022/06/25 04:11:56;;;;;;;3.92;1.65;;;21.30;63.10;;;;;;5044309;28;20013;-61
2022/06/25 04:14:22;;;;;;;4.28;1.40;;;21.30;63.10;;;;;;5045633;28;20049;-61
2022/06/25 04:16:48;;;;;;;5.60;1.40;;;21.30;63.10;;;;;;5045882;28;20040;-61
2022/06/25 04:19:14;;;;;;;3.70;1.25;;;21.30;63.10;;;;;;5045978;28;20788;-61
2022/06/25 04:21:40;;;;;;;3.72;1.20;;;21.30;63.10;;;;;;5046941;28;20108;-61
2022/06/25 04:24:06;;;;;;;4.40;1.00;;;21.30;63.10;;;;;;5045184;28;20033;-61
2022/06/25 04:26:31;;;;;;;4.28;1.10;;;21.30;63.10;;;;;;5044834;28;20025;-61
2022/06/25 04:29:03;;;;;;;4.85;1.27;;;21.30;63.10;;;;;;5045376;28;20025;-61
2022/06/25 04:31:29;;;;;;;4.80;1.10;;;21.30;63.10;;;;;;5045590;28;20456;-61
2022/06/25 04:33:55;;;;;;;4.45;1.17;;;21.20;63.00;;;;;;5045862;28;20095;-61
2022/06/25 04:36:21;;;;;;;3.67;1.38;;;21.30;63.10;;;;;;5046984;28;20107;-61
2022/06/25 04:38:46;;;;;;;3.45;1.10;;;21.20;63.00;;;;;;5057910;28;20108;-61
2022/06/25 04:41:12;;;;;;;3.47;1.05;;;21.20;63.00;;;;;;5045978;28;20419;-61
2022/06/25 04:43:37;;;;;;;4.97;1.35;;;21.20;63.00;;;;;;5044421;28;20033;-61
2022/06/25 04:46:03;;;;;;;3.92;1.40;;;21.30;63.00;;;;;;5045006;28;20021;-61
2022/06/25 04:48:29;;;;;;;3.35;1.30;;;21.20;63.00;;;;;;5046846;28;20044;-61
2022/06/25 04:50:54;;;;;;;5.18;1.40;;;21.20;63.00;;;;;;5045044;28;20029;-61
2022/06/25 04:53:20;;;;;;;4.07;1.30;;;21.20;63.00;;;;;;5045350;28;20418;-61
2022/06/25 04:55:46;;;;;;;3.22;1.10;;;21.20;62.90;;;;;;5044342;28;20040;-61
2022/06/25 04:58:11;;;;;;;4.45;1.40;;;21.20;62.90;;;;;;5044568;28;20100;-61
2022/06/25 05:00:37;;;;;;;3.00;1.02;;;21.20;62.90;;;;;;5045672;28;20086;-61
2022/06/25 05:03:03;;;;;;;4.07;1.42;;;21.20;62.90;;;;;;5043700;28;20029;-61
2022/06/25 05:05:28;;;;;;;3.53;1.30;;;21.20;62.90;;;;;;5043671;28;20134;-61
2022/06/25 05:07:54;;;;;;;4.72;1.27;;;21.20;63.00;;;;;;5044603;28;20040;-61
2022/06/25 05:10:20;;;;;;;4.05;1.20;;;21.20;63.00;;;;;;5042725;28;20025;-61
2022/06/25 05:15:30;;;;;;;2.72;1.08;;;21.10;63.00;;;;;;5046930;28;20750;-61
2022/06/25 05:17:55;;;;;;;1.52;0.80;;;21.10;62.90;;;;;;5044517;28;20024;-61
2022/06/25 05:20:21;;;;;;;4.05;1.20;;;21.10;62.90;;;;;;5041265;28;20067;-61
2022/06/25 05:22:47;;;;;;;3.97;1.40;;;21.10;62.90;;;;;;5044752;28;20056;-61
2022/06/25 05:25:14;;;;;;;3.83;1.30;;;21.10;63.00;;;;;;5042517;28;20037;-61
2022/06/25 05:27:39;;;;;;;5.57;1.30;;;21.10;62.90;;;;;;5060019;28;20116;-61
2022/06/25 05:30:07;;;;;;;3.72;1.00;;;21.10;62.90;;;;;;5044540;28;20104;-61
2022/06/25 05:32:32;;;;;;;3.67;1.38;;;21.10;63.10;;;;;;5060826;28;20032;-61
2022/06/25 05:34:58;;;;;;;2.95;1.30;;;21.10;62.90;;;;;;5058052;28;20038;-61
2022/06/25 05:37:24;;;;;;;2.88;1.05;;;21.10;62.90;;;;;;5042450;28;20033;-61
2022/06/25 05:39:51;;;;;;;3.25;1.00;;;21.00;62.70;;;;;;5046296;28;20059;-61
2022/06/25 05:42:17;;;;;;;2.85;1.13;;;21.00;62.80;;;;;;5044731;28;20029;-61
2022/06/25 05:44:43;;;;;;;3.63;1.17;;;21.00;62.80;;;;;;5038105;28;20107;-61
2022/06/25 05:47:10;;;;;;;3.85;1.23;;;21.00;62.90;;;;;;5044705;28;20095;-61
2022/06/25 05:49:36;;;;;;;5.13;1.30;;;21.00;62.80;;;;;;5040281;28;20024;-61
2022/06/25 05:52:01;;;;;;;2.22;1.02;;;21.00;62.80;;;;;;5040849;28;20033;-61
2022/06/25 05:54:27;;;;;;;2.95;1.20;;;21.00;62.80;;;;;;5043801;28;20044;-61
2022/06/25 05:56:53;;;;;;;5.45;1.33;;;21.00;62.80;;;;;;5058912;28;20026;-61
2022/06/25 05:59:20;;;;;;;3.33;1.40;;;21.00;62.80;;;;;;5045766;28;20025;-61
2022/06/25 06:01:46;;;;;;;4.38;1.27;;;21.00;62.70;;;;;;5044260;28;20028;-61
2022/06/25 06:04:15;;;;;;;4.55;1.38;;;21.00;62.80;;;;;;5042810;28;20029;-61
2022/06/25 06:06:41;;;;;;;3.60;1.20;;;21.00;62.90;;;;;;5045460;28;20371;-61
2022/06/25 06:09:06;;;;;;;3.88;1.20;;;21.00;62.90;;;;;;5044373;28;20043;-61
2022/06/25 06:11:35;;;;;;;5.40;1.60;;;21.00;62.90;;;;;;5043549;28;20029;-61
2022/06/25 06:14:01;;;;;;;3.20;1.20;;;21.00;63.00;;;;;;5042231;28;20095;-61
2022/06/25 06:16:27;;;;;;;3.70;1.30;;;21.00;63.00;;;;;;5045468;28;20024;-61
2022/06/25 06:18:52;;;;;;;3.95;1.33;;;21.00;63.00;;;;;;5044686;28;20508;-61
2022/06/25 06:21:18;;;;;;;3.58;1.55;;;21.00;63.00;;;;;;5045315;28;20021;-61
2022/06/25 06:23:44;;;;;;;3.28;1.30;;;21.00;63.00;;;;;;5044870;28;20509;-61
2022/06/25 06:26:10;;;;;;;4.18;1.40;;;21.00;63.10;;;;;;5060243;28;20029;-61
2022/06/25 06:28:37;;;;;;;3.15;1.20;;;21.00;63.00;;;;;;5045710;28;20021;-61
2022/06/25 06:31:02;;;;;;;4.47;1.30;;;21.00;63.10;;;;;;5040965;28;20017;-61
2022/06/25 06:33:28;;;;;;;3.47;1.25;;;21.00;63.10;;;;;;5043276;28;20040;-61
2022/06/25 06:35:54;;;;;;;5.07;1.38;;;20.90;63.10;;;;;;5045439;28;20724;-61
2022/06/25 06:38:19;;;;;;;3.03;1.30;;;21.00;63.00;;;;;;5043168;28;20025;-61
2022/06/25 06:40:45;;;;;;;2.75;1.10;;;20.90;63.00;;;;;;5044329;28;20021;-61
2022/06/25 06:43:10;;;;;;;4.63;1.38;;;20.90;63.00;;;;;;5044187;28;20482;-61
2022/06/25 06:45:36;;;;;;;3.60;1.20;;;20.90;63.00;;;;;;5044989;28;20049;-61
2022/06/25 06:48:02;;;;;;;3.05;1.13;;;20.90;62.90;;;;;;5042408;28;20077;-61
2022/06/25 06:50:28;;;;;;;2.83;1.40;;;20.90;63.00;;;;;;5041446;28;20063;-61
2022/06/25 06:52:53;;;;;;;3.28;1.27;;;20.90;63.10;;;;;;5043677;28;20083;-61
2022/06/25 06:55:19;;;;;;;2.97;1.20;;;20.90;63.10;;;;;;5044013;28;20083;-61
2022/06/25 06:57:44;;;;;;;4.93;1.30;;;20.90;63.00;;;;;;5059089;28;20028;-61
2022/06/25 07:00:10;;;;;;;5.13;1.60;;;20.90;63.10;;;;;;5042199;28;20108;-61
2022/06/25 07:02:36;;;;;;;3.58;1.25;;;20.90;63.10;;;;;;5042793;28;20163;-61
2022/06/25 07:05:02;;;;;;;2.80;1.00;;;20.90;63.20;;;;;;5042286;28;20438;-61
2022/06/25 07:07:27;;;;;;;2.85;1.20;;;20.90;63.10;;;;;;5041618;28;20701;-61
2022/06/25 07:09:53;;;;;;;3.88;1.33;;;20.90;63.10;;;;;;5043611;28;20429;-60
2022/06/25 07:12:19;;;;;;;4.72;1.27;;;20.90;63.10;;;;;;5043871;28;20029;-61
2022/06/25 07:14:44;;;;;;;5.57;1.30;;;20.90;63.10;;;;;;5046202;28;20052;-61
2022/06/25 07:17:10;;;;;;;4.05;1.50;;;20.90;63.10;;;;;;5042383;28;20448;-61
2022/06/25 07:19:36;;;;;;;4.35;1.50;;;20.90;63.10;;;;;;5046095;28;20029;-61
2022/06/25 07:22:02;;;;;;;2.95;1.20;;;20.90;63.20;;;;;;5047474;28;20440;-60
2022/06/25 07:24:28;;;;;;;4.40;1.45;;;20.90;63.20;;;;;;5047344;28;20064;-61
2022/06/25 07:26:54;;;;;;;2.25;1.10;;;20.90;63.20;;;;;;5046375;28;20701;-61
2022/06/25 07:29:19;;;;;;;3.17;1.20;;;20.90;63.20;;;;;;5046939;28;20028;-61
2022/06/25 07:31:45;;;;;;;5.47;1.42;;;20.90;63.40;;;;;;5041464;28;20028;-59
2022/06/25 07:34:12;;;;;;;4.35;1.10;;;20.90;63.20;;;;;;5044258;28;20252;-59
2022/06/25 07:36:37;;;;;;;4.18;1.40;;;20.90;63.10;;;;;;5046649;28;22276;-59
2022/06/25 07:39:03;;;;;;;6.93;1.50;;;20.90;63.00;;;;;;5045264;28;20026;-59
2022/06/25 07:41:28;;;;;;;3.90;1.50;;;21.00;63.20;;;;;;5066907;28;20032;-59
2022/06/25 07:43:54;;;;;;;4.22;1.20;;;21.00;63.10;;;;;;5049695;28;20117;-59
2022/06/25 07:46:20;;;;;;;3.47;1.20;;;21.00;63.20;;;;;;5046970;28;20414;-59
2022/06/25 07:48:46;;;;;;;4.63;1.20;;;21.00;63.00;;;;;;5047399;28;20041;-59
2022/06/25 07:53:56;;;;;;;4.75;1.58;;;21.10;63.10;;;;;;5045063;28;20397;-59
2022/06/25 07:56:22;;;;;;;9.05;2.28;;;21.10;62.80;;;;;;5046478;28;20029;-59
2022/06/25 07:58:48;;;;;;;8.27;2.50;;;21.10;62.00;;;;;;5044023;28;20043;-59
2022/06/25 08:01:13;;;;;;;10.70;2.50;;;21.10;61.50;;;;;;5044138;28;20033;-59
2022/06/25 08:03:39;;;;;;;8.90;2.42;;;21.00;60.50;;;;;;5045953;28;20033;-59
2022/06/25 08:06:05;;;;;;;8.35;2.47;;;21.10;61.60;;;;;;5047421;28;20032;-59
2022/06/25 08:08:30;;;;;;;10.50;2.80;;;21.00;61.00;;;;;;5045247;28;20448;-59
2022/06/25 08:10:56;;;;;;;11.40;2.67;;;21.00;60.80;;;;;;5042141;28;20562;-59
2022/06/25 08:13:22;;;;;;;11.85;2.92;;;21.00;60.80;;;;;;5047800;28;20017;-59
2022/06/25 08:15:48;;;;;;;12.60;3.00;;;21.00;59.40;;;;;;5046956;28;20037;-59
2022/06/25 08:18:14;;;;;;;10.52;2.78;;;21.00;58.70;;;;;;5040350;28;20092;-59
2022/06/25 08:20:40;;;;;;;12.10;3.10;;;21.00;59.60;;;;;;5045963;28;20040;-59
2022/06/25 08:23:05;;;;;;;14.90;3.10;;;21.00;58.70;;;;;;5045602;28;20024;-59
2022/06/25 08:25:31;;;;;;;16.10;2.50;;;21.00;58.90;;;;;;5045193;28;20539;-59
2022/06/25 08:27:57;;;;;;;12.32;2.70;;;21.00;59.50;;;;;;5047403;28;20029;-59
2022/06/25 08:30:23;;;;;;;11.48;2.50;;;21.00;59.60;;;;;;5049063;28;20052;-59
2022/06/25 08:32:49;;;;;;;9.98;3.10;;;21.00;58.30;;;;;;5038691;28;20383;-59
2022/06/25 08:35:15;;;;;;;13.65;3.05;;;21.00;58.40;;;;;;5046489;28;20044;-59
2022/06/25 08:37:44;;;;;;;10.27;2.90;;;21.00;58.50;;;;;;5045391;28;20032;-59
2022/06/25 08:40:10;;;;;;;15.10;3.00;;;21.00;58.00;;;;;;5046660;28;20644;-59
2022/06/25 08:42:36;;;;;;;14.85;3.28;;;21.00;58.80;;;;;;5050155;28;20025;-59
2022/06/25 08:45:02;;;;;;;15.10;3.72;;;21.00;59.70;;;;;;5032272;28;20098;-59
2022/06/25 08:47:27;;;;;;;13.02;3.00;;;21.00;58.80;;;;;;5026205;28;20394;-59
2022/06/25 08:49:53;;;;;;;10.77;2.58;;;21.00;58.90;;;;;;5026379;28;20033;-59
2022/06/25 08:52:19;;;;;;;14.32;3.00;;;21.00;57.90;;;;;;5025920;28;20105;-59
2022/06/25 08:54:45;;;;;;;17.73;3.17;;;21.00;58.50;;;;;;5008801;28;20052;-59
2022/06/25 08:57:11;;;;;;;12.82;3.10;;;21.00;59.00;;;;;;5004551;28;20022;-59
2022/06/25 08:59:37;;;;;;;11.90;3.13;;;21.00;58.80;;;;;;5008685;28;20096;-59
2022/06/25 09:02:03;;;;;;;12.73;3.28;;;21.10;59.60;;;;;;5020720;28;20036;-59
2022/06/25 09:04:28;;;;;;;12.57;3.65;;;21.00;58.50;;;;;;5023334;28;20048;-59
2022/06/25 09:07:13;;;;;;;10.63;3.00;;;21.10;58.40;;;;;;5024572;28;20033;-59
2022/06/25 09:09:38;;;;;;;10.57;2.80;;;21.10;58.00;;;;;;5024632;28;20526;-59
2022/06/25 09:12:08;;;;;;;12.55;2.90;;;21.10;56.90;;;;;;5025226;28;20072;-59
2022/06/25 09:14:35;;;;;;;15.93;2.72;;;21.10;57.40;;;;;;5023381;28;20421;-59
2022/06/25 09:17:09;;;;;;;12.57;2.80;;;21.10;57.60;;;;;;5024096;28;20030;-59
2022/06/25 09:19:43;;;;;;;10.65;2.72;;;21.00;55.70;;;;;;5021239;28;20410;-59
2022/06/25 09:22:10;;;;;;;9.40;2.53;;;21.00;56.30;;;;;;5024496;28;20031;-59
2022/06/25 09:24:49;;;;;;;10.88;2.58;;;21.10;56.50;;;;;;5025878;28;20025;-59
2022/06/25 09:27:36;;;;;;;15.73;3.03;;;21.10;54.90;;;;;;5026362;28;20091;-59
2022/06/25 09:30:10;;;;;;;9.13;2.28;;;21.10;55.40;;;;;;5024238;28;20033;-59
2022/06/25 09:32:43;;;;;;;11.98;2.50;;;21.10;55.60;;;;;;5023928;28;20025;-59
2022/06/25 09:35:10;;;;;;;11.40;2.80;;;21.00;55.10;;;;;;5023115;28;20989;-59
2022/06/25 09:37:36;;;;;;;10.25;2.42;;;21.00;54.40;;;;;;5022113;28;20029;-59
2022/06/25 09:40:02;;;;;;;10.05;2.33;;;20.90;53.90;;;;;;5024857;28;20025;-59
2022/06/25 09:42:29;;;;;;;8.23;2.20;;;20.90;54.00;;;;;;5010090;28;20021;-59
2022/06/25 09:44:59;;;;;;;10.70;2.30;;;20.90;53.50;;;;;;5036349;28;20056;-59
2022/06/25 09:47:25;;;;;;;9.35;2.40;;;20.90;53.40;;;;;;5040283;28;20437;-59
2022/06/25 09:50:09;;;;;;;9.65;2.38;;;20.90;53.90;;;;;;5045849;28;20028;-59
2022/06/25 09:52:36;;;;;;;14.57;2.83;;;20.90;55.70;;;;;;5042802;28;20029;-59
2022/06/25 09:55:02;;;;;;;15.40;3.10;;;20.90;55.00;;;;;;5045374;28;20061;-60
2022/06/25 09:57:29;;;;;;;13.25;2.85;;;21.00;56.00;;;;;;5045563;28;20857;-60
2022/06/25 09:59:54;;;;;;;15.35;2.97;;;21.00;56.20;;;;;;5056009;28;20038;-60
2022/06/25 10:02:20;;;;;;;11.90;3.17;;;21.00;56.40;;;;;;5060662;28;20029;-60
2022/06/25 10:04:47;;;;;;;12.82;3.00;;;21.00;56.50;;;;;;5059581;28;20025;-61
2022/06/25 10:07:13;;;;;;;14.30;3.13;;;21.00;56.60;;;;;;5058629;28;20117;-61
2022/06/25 10:09:40;;;;;;;9.82;2.45;;;21.00;56.90;;;;;;5044931;28;20627;-61
2022/06/25 10:12:06;;;;;;;11.82;3.00;;;21.00;57.10;;;;;;5042562;28;20029;-61
2022/06/25 10:14:34;;;;;;;13.00;3.10;;;21.00;57.20;;;;;;5043909;28;20025;-61
2022/06/25 10:17:00;;;;;;;10.15;2.67;;;21.00;57.30;;;;;;5038776;28;20036;-61
2022/06/25 10:19:26;;;;;;;12.73;2.58;;;21.00;57.50;;;;;;5060227;28;20017;-61
2022/06/25 10:21:52;;;;;;;11.57;2.83;;;21.00;57.60;;;;;;5057777;28;20025;-61
2022/06/25 10:24:17;;;;;;;14.77;3.50;;;21.00;57.80;;;;;;5045240;28;20033;-61
2022/06/25 10:26:43;;;;;;;23.05;3.80;;;21.10;58.30;;;;;;5059108;28;20036;-64
2022/06/25 10:29:25;;;;;;;23.55;4.15;;;21.20;58.30;;;;;;5058230;28;20029;-62
2022/06/25 10:31:50;;;;;;;20.05;4.25;;;21.40;58.20;;;;;;5042079;28;20108;-62
2022/06/25 10:34:16;;;;;;;15.88;3.83;;;21.40;58.20;;;;;;5041177;28;20125;-62
2022/06/25 10:36:49;;;;;;;19.23;3.67;;;21.40;58.20;;;;;;5042902;28;20115;-62
2022/06/25 10:39:27;;;;;;;19.75;3.65;;;21.40;58.30;;;;;;5037697;28;20036;-62
2022/06/25 10:45:06;;;;;;;15.35;3.72;;;21.30;58.90;;;;;;5042629;28;20433;-62
2022/06/25 10:47:38;;;;;;;15.75;3.50;;;21.30;59.00;;;;;;5040592;28;20029;-61
2022/06/25 10:50:21;;;;;;;13.05;3.63;;;21.30;59.20;;;;;;5045046;28;20033;-61
2022/06/25 10:53:08;;;;;;;13.52;3.30;;;21.30;59.30;;;;;;5046193;28;20033;-61
2022/06/25 10:55:35;;;;;;;14.52;3.88;;;21.30;59.60;;;;;;5047008;28;20064;-61
2022/06/25 10:58:13;;;;;;;14.80;3.33;;;21.30;59.70;;;;;;5047780;28;20035;-61
2022/06/25 11:01:04;;;;;;;14.52;3.35;;;21.20;60.20;;;;;;5049407;28;20024;-62
2022/06/25 11:03:30;;;;;;;14.70;3.40;;;21.30;60.60;;;;;;5047936;28;20411;-61
2022/06/25 11:05:57;;;;;;;16.88;3.80;;;21.30;61.00;;;;;;5048300;28;20512;-61
2022/06/25 11:08:31;;;;;;;13.32;3.40;;;21.40;62.60;;;;;;5045995;28;20029;-61
2022/06/25 11:10:57;;;;;;;14.32;3.22;;;21.40;62.20;;;;;;5060337;28;20084;-62
2022/06/25 11:13:26;;;;;;;11.00;2.85;;;21.40;61.40;;;;;;5046032;28;20611;-62
2022/06/25 11:15:51;;;;;;;12.30;2.50;;;21.30;61.10;;;;;;5047715;28;20780;-62
2022/06/25 11:18:17;;;;;;;12.20;2.72;;;21.30;61.30;;;;;;5048821;28;20035;-62
2022/06/25 11:20:46;;;;;;;11.90;2.28;;;21.30;61.40;;;;;;5046715;28;20112;-62
2022/06/25 11:23:12;;;;;;;10.25;2.05;;;21.30;61.40;;;;;;5046293;28;20032;-62
2022/06/25 11:28:52;;;;;;;9.93;2.10;;;21.30;62.00;;;;;;5047997;28;20101;-62
2022/06/25 11:31:19;;;;;;;8.63;2.17;;;21.30;62.20;;;;;;5047764;28;21593;-62
2022/06/25 11:33:46;;;;;;;10.00;2.38;;;21.30;62.00;;;;;;5045912;28;20028;-62
2022/06/25 11:36:11;;;;;;;7.10;2.15;;;21.30;61.90;;;;;;5041751;28;20027;-61
2022/06/25 11:38:37;;;;;;;7.55;1.98;;;21.30;62.10;;;;;;5044173;28;20025;-62
2022/06/25 11:41:03;;;;;;;10.18;1.92;;;21.30;62.10;;;;;;5061018;28;20025;-61
2022/06/25 11:43:29;;;;;;;7.75;2.00;;;21.40;62.10;;;;;;5045895;28;20037;-61
2022/06/25 11:45:58;;;;;;;9.93;2.15;;;21.40;61.90;;;;;;5043520;28;20128;-61
2022/06/25 11:48:28;;;;;;;9.02;2.00;;;21.50;62.00;;;;;;5048834;28;20044;-61
2022/06/25 11:50:59;;;;;;;11.15;2.05;;;21.50;61.90;;;;;;5046704;28;20032;-61
2022/06/25 11:53:25;;;;;;;8.02;1.92;;;21.50;62.00;;;;;;5042750;28;20549;-61
2022/06/25 11:56:01;;;;;;;9.32;2.20;;;21.50;62.10;;;;;;5041239;28;20029;-61
2022/06/25 11:58:29;;;;;;;11.43;2.30;;;21.60;62.00;;;;;;5044639;28;20025;-61
2022/06/25 12:00:59;;;;;;;11.00;2.22;;;21.50;61.80;;;;;;5046481;28;20036;-61
2022/06/25 12:03:28;;;;;;;13.20;2.15;;;21.60;61.50;;;;;;5045112;28;20033;-65
2022/06/25 12:05:54;;;;;;;13.02;2.38;;;21.50;61.40;;;;;;5044909;28;20021;-59
2022/06/25 12:08:20;;;;;;;14.32;2.40;;;21.60;61.80;;;;;;5045074;28;20107;-62
2022/06/25 12:10:47;;;;;;;9.90;2.50;;;21.60;61.50;;;;;;5058285;28;20029;-59
2022/06/25 12:13:16;;;;;;;15.98;2.33;;;21.60;61.50;;;;;;5062138;28;20024;-59
2022/06/25 12:15:42;;;;;;;10.45;2.10;;;21.70;61.60;;;;;;5048412;28;20056;-60
2022/06/25 12:18:08;;;;;;;8.38;2.17;;;21.60;61.60;;;;;;5046928;28;20347;-60
2022/06/25 12:20:34;;;;;;;9.88;2.40;;;21.70;61.40;;;;;;5044249;28;20456;-60
2022/06/25 12:23:00;;;;;;;9.15;2.00;;;21.80;61.50;;;;;;5043750;28;20637;-61
2022/06/25 12:25:31;;;;;;;11.13;2.10;;;21.70;61.30;;;;;;5047258;28;20033;-59
2022/06/25 12:27:57;;;;;;;8.10;2.05;;;21.80;61.50;;;;;;5040302;28;20148;-60
2022/06/25 12:30:31;;;;;;;8.82;2.53;;;21.80;62.30;;;;;;5043212;28;20120;-61
2022/06/25 12:33:13;;;;;;;8.73;2.05;;;21.80;61.40;;;;;;5062184;28;20036;-60
2022/06/25 12:35:41;;;;;;;8.73;2.13;;;21.80;61.40;;;;;;5045089;28;20048;-59
2022/06/25 12:38:14;;;;;;;9.32;1.77;;;21.80;61.30;;;;;;5060414;28;20124;-59
2022/06/25 12:40:49;;;;;;;7.20;2.00;;;21.80;61.20;;;;;;5044527;28;20029;-60
2022/06/25 12:43:38;;;;;;;8.50;2.10;;;21.80;60.90;;;;;;5045285;28;20813;-59
2022/06/25 12:46:08;;;;;;;8.77;1.85;;;21.80;60.80;;;;;;5060423;28;20049;-60
2022/06/25 12:48:34;;;;;;;7.57;1.73;;;21.80;60.60;;;;;;5043224;28;20032;-60
2022/06/25 12:51:16;;;;;;;7.68;2.13;;;21.90;60.70;;;;;;5050509;28;20079;-59
2022/06/25 12:53:43;;;;;;;8.10;1.80;;;21.90;60.70;;;;;;5046668;28;21690;-59
2022/06/25 12:56:09;;;;;;;11.70;1.98;;;21.90;60.70;;;;;;5058860;28;20033;-61
2022/06/25 12:58:35;;;;;;;6.28;1.80;;;21.90;60.70;;;;;;5063738;28;20409;-60
2022/06/25 13:01:16;;;;;;;6.70;1.67;;;21.90;61.00;;;;;;5062254;28;20033;-60
2022/06/25 13:03:42;;;;;;;4.68;1.60;;;21.90;61.00;;;;;;5043304;28;20029;-61
2022/06/25 13:06:08;;;;;;;9.93;2.00;;;21.90;61.10;;;;;;5045113;28;20487;-62